Terminal Aerodrome Forecast
Issued by NWS Sioux Falls, SD

Home | Current Version | Previous Version | Text Only | Print | Product List | Glossary On
Versions: 1 2 3 4 5 6 7 8 9 10 11 12 13
000
FTUS43 KFSD 210532
TAFHON
TAF
KHON 210532Z 2106/2206 07004KT P6SM SCT060
     FM210900 08005KT P6SM BKN025
     FM211800 09005KT P6SM SCT025 BKN150
     FM212100 36006KT P6SM BKN060
     FM220300 35004KT P6SM SCT060=

USA.gov is the U.S. government's official web portal to all federal, state and local government web resources and services.